El Hierro > ESTACION METEOROLÓGICA Frontera

DATOS ACTUALES Online

Ultima actulizacion 13 minutos

20 ºC

Temperatura

44

Humedad (%)

985.21

Presión (mb)

0

Precipitación (mm)

30.1 NO

Viento (Km/h)

DATOS DIARIOS

Temperatura últimas 24 horas (ºC)

Humedad últimas 24 horas (%)

Presión atmosférica últimas 24 horas (mb)

Precipitaciones últimas 23 horas (mm)

Viento últimas 24 horas (Km/h)

Hora Temperatura (°C) ºC Precipitación (mm) mm Presión (mb) mb Humedad (%) % Viento (Km/h) km/h
19 - 09:00 17.4 1.7 986 63 57.2 N
19 - 10:00 18 1.7 986 59 50.3 N
19 - 11:00 17.9 1.7 986 62 61.1 N
19 - 12:00 19.2 1.7 986 58 60.8 N
19 - 13:00 19.9 1.7 985 52 55.2 N
19 - 14:00 20.4 1.7 984 49 49.5 N
19 - 15:00 21.1 1.7 985 49 28 O
19 - 16:00 20.6 1.7 985 52 30 N
19 - 17:00 19.5 1.7 985 50 34.2 O
19 - 18:00 19.2 1.7 985 45 23.2 NO
19 - 19:00 18.7 1.7 986 56 23 O
19 - 20:00 19.1 1.7 986 56 18.7 NO
19 - 21:00 19.1 1.7 987 56 21.7 NO
19 - 22:00 18.5 1.7 987 58 25 N
19 - 23:00 18.5 1.7 987 59 28.2 NO
20 - 00:00 17.9 0 987 61 11.4 O
20 - 01:00 18.8 0 986 34 25.5 NW
20 - 02:00 19.3 0 986 30 36 N
20 - 03:00 20 0 986 31 46.5 NW
20 - 04:00 19.2 0 985 41 47.2 W
20 - 05:00 19 0 984 45 40 SW
20 - 06:00 18.1 0 985 52 13 O
20 - 07:00 19.1 0 985 50 26.3 O
20 - 08:00 20.1 0 985 38 48.9 SO
20 - 09:00 20 0 985 44 30.1 NO
Apalmet utiliza cookies propias y de terceros para mejorar la usabilidad y la experiencia web. Política de cookies.